Time;durP1;ratioP1;P1;durP2;ratioP2;P2;SDS_P1;SDS_P2;PMS_P1;PMS_P2;Temp;Humidity;BMP_temperature;BMP_pressure;BME280_temperature;BME280_humidity;BME280_pressure;Samples;Min_cycle;Max_cycle;Signal;HPM_P1;HPM_P2
2023/03/03 00:35:00;;;;;;;;;;;;;;;;;;;;;
2023/03/03 00:38:26;;;;;;;;;;;;;;;;;;;;;
2023/03/03 00:48:41;;;;;;;60.80;31.85;;;2.60;1.00;;;;;;6297426;22;20538;-84
2023/03/03 01:02:31;;;;;;;66.78;31.23;;;2.70;99.90;;;;;;6132880;23;20636;-84
2023/03/03 01:23:32;;;;;;;;;;;;;;;;;;;;;
2023/03/03 01:26:49;;;;;;;;;;;;;;;;;;;;;
2023/03/03 01:37:19;;;;;;;120.82;50.65;;;3.00;99.90;;;;;;6127015;23;20226;-84
2023/03/03 01:47:19;;;;;;;;;;;;;;;;;;;;;
2023/03/03 02:08:58;;;;;;;;;;;;;;;;;;;;;
2023/03/03 02:12:27;;;;;;;;;;;;;;;;;;;;;
2023/03/03 02:22:48;;;;;;;;;;;;;;;;;;;;;
2023/03/03 02:47:24;;;;;;;;;;;;;;;;;;;;;
2023/03/03 02:50:39;;;;;;;142.60;53.70;;;3.00;99.90;;;;;;6184460;23;20210;-84
2023/03/03 03:04:36;;;;;;;;;;;;;;;;;;;;;
2023/03/03 03:40:50;;;;;;;103.13;45.63;;;3.30;1.30;;;;;;6125757;23;20558;-84
2023/03/03 04:01:31;;;;;;;;;;;;;;;;;;;;;
2023/03/03 05:31:22;;;;;;;;;;;;;;;;;;;;;
2023/03/03 06:04:22;;;;;;;;;;;;;;;;;;;;;
2023/03/03 06:52:07;;;;;;;;;;;;;;;;;;;;;
2023/03/03 07:05:33;;;;;;;108.32;45.38;;;3.20;1.00;;;;;;6163525;22;20490;-84
2023/03/03 07:08:46;;;;;;;104.80;43.30;;;3.20;1.00;;;;;;6305262;22;20228;-83
2023/03/03 07:12:02;;;;;;;;;;;;;;;;;;;;;
2023/03/03 07:18:11;;;;;;;102.43;42.67;;;3.40;1.00;;;;;;6306709;22;20154;-86
2023/03/03 07:21:38;;;;;;;110.22;44.58;;;3.40;99.90;;;;;;6256494;22;20176;-86
2023/03/03 07:28:03;;;;;;;;;;;;;;;;;;;;;
2023/03/03 07:31:11;;;;;;;107.75;45.50;;;3.70;16.70;;;;;;6305572;22;20178;-84
2023/03/03 08:12:52;;;;;;;;;;;;;;;;;;;;;
2023/03/03 08:23:38;;;;;;;;;;;;;;;;;;;;;
2023/03/03 08:30:37;;;;;;;;;;;;;;;;;;;;;
2023/03/03 08:44:10;;;;;;;;;;;;;;;;;;;;;
2023/03/03 08:47:32;;;;;;;;;;;;;;;;;;;;;
2023/03/03 08:53:32;;;;;;;99.00;42.85;;;4.40;1.00;;;;;;6305133;22;20151;-86
2023/03/03 08:56:41;;;;;;;100.00;41.13;;;4.50;99.90;;;;;;6280340;22;20183;-85
2023/03/03 08:59:37;;;;;;;;;;;;;;;;;;;;;
2023/03/03 09:05:54;;;;;;;;;;;;;;;;;;;;;
2023/03/03 09:08:50;;;;;;;;;;;;;;;;;;;;;
2023/03/03 09:11:33;;;;;;;105.03;41.67;;;4.80;99.90;;;;;;6308252;22;20263;-86
2023/03/03 09:14:19;;;;;;;110.93;46.60;;;4.80;71.90;;;;;;6308966;22;20170;-86
2023/03/03 09:17:08;;;;;;;;;;;;;;;;;;;;;
2023/03/03 09:20:07;;;;;;;;;;;;;;;;;;;;;
2023/03/03 09:22:36;;;;;;;108.35;45.05;;;5.00;1.00;;;;;;6325973;22;20152;-86
2023/03/03 09:25:35;;;;;;;102.95;43.25;;;5.10;1.00;;;;;;6263045;22;20159;-84
2023/03/03 09:28:02;;;;;;;110.38;45.05;;;5.30;1.00;;;;;;6307178;22;20636;-85
2023/03/03 09:30:39;;;;;;;123.13;49.80;;;5.40;1.00;;;;;;6307752;22;20183;-86
2023/03/03 09:33:29;;;;;;;125.00;49.83;;;5.50;1.00;;;;;;6308458;22;20143;-86
2023/03/03 09:36:21;;;;;;;115.63;48.97;;;5.60;1.00;;;;;;6286922;22;20179;-85
2023/03/03 09:38:48;;;;;;;132.40;50.97;;;5.70;1.00;;;;;;6308087;22;20174;-84
2023/03/03 09:41:15;;;;;;;117.20;50.60;;;5.80;1.00;;;;;;6307108;22;20258;-85
2023/03/03 09:43:56;;;;;;;131.45;51.42;;;5.80;1.00;;;;;;6280097;22;20238;-84
2023/03/03 09:46:31;;;;;;;108.70;47.45;;;5.90;1.00;;;;;;6306792;22;20185;-83
2023/03/03 09:49:07;;;;;;;120.63;48.65;;;6.00;1.00;;;;;;6308011;22;20165;-89
2023/03/03 09:51:41;;;;;;;114.53;48.38;;;6.00;1.00;;;;;;6280683;22;20155;-85
2023/03/03 09:54:41;;;;;;;111.25;47.28;;;6.10;1.00;;;;;;6307428;22;20693;-86
2023/03/03 09:57:19;;;;;;;108.57;47.20;;;6.10;1.00;;;;;;6224868;22;20212;-84
2023/03/03 10:00:15;;;;;;;111.95;48.00;;;6.20;1.00;;;;;;6308095;22;20171;-84
2023/03/03 10:03:17;;;;;;;113.53;49.97;;;6.20;1.00;;;;;;6279236;22;20152;-86
2023/03/03 10:05:48;;;;;;;110.25;46.78;;;6.30;1.00;;;;;;6281534;22;20147;-86
2023/03/03 10:08:52;;;;;;;116.88;48.00;;;6.30;1.00;;;;;;6283196;22;20151;-85
2023/03/03 10:11:38;;;;;;;112.82;45.75;;;6.30;1.00;;;;;;6291747;22;20254;-86
2023/03/03 10:14:12;;;;;;;105.97;45.45;;;6.30;1.00;;;;;;6312765;22;20128;-87
2023/03/03 10:16:50;;;;;;;96.65;45.53;;;6.40;1.00;;;;;;6312886;22;20190;-87
2023/03/03 10:19:34;;;;;;;93.90;42.78;;;6.40;1.00;;;;;;6284313;22;20185;-85
2023/03/03 10:22:26;;;;;;;105.53;46.92;;;6.50;1.00;;;;;;6311968;22;20148;-87
2023/03/03 10:25:01;;;;;;;114.35;46.47;;;6.50;99.90;;;;;;6313606;22;20627;-85
2023/03/03 10:27:31;;;;;;;96.32;45.40;;;6.60;99.90;;;;;;6314037;22;20143;-86
2023/03/03 10:30:27;;;;;;;100.55;46.13;;;6.70;99.90;;;;;;6285790;22;20193;-87
2023/03/03 10:33:20;;;;;;;110.65;46.80;;;6.80;99.90;;;;;;6312247;22;20136;-85
2023/03/03 10:36:05;;;;;;;111.18;46.88;;;6.90;99.90;;;;;;6314428;22;20187;-87
2023/03/03 10:38:51;;;;;;;113.68;47.60;;;6.90;99.90;;;;;;6315412;22;20154;-86
2023/03/03 10:41:46;;;;;;;106.32;48.75;;;6.90;99.90;;;;;;6312971;22;20209;-85
2023/03/03 10:44:47;;;;;;;106.55;47.03;;;6.90;99.90;;;;;;6280492;22;20148;-85
2023/03/03 10:47:43;;;;;;;105.32;48.97;;;6.90;99.90;;;;;;6258756;22;20166;-85
2023/03/03 10:50:30;;;;;;;121.47;49.05;;;7.10;99.90;;;;;;6277630;22;20355;-85
2023/03/03 10:53:13;;;;;;;100.07;44.90;;;7.20;99.90;;;;;;6306194;22;20564;-84
2023/03/03 10:55:54;;;;;;;114.68;49.40;;;7.20;99.90;;;;;;6279831;22;20182;-85
2023/03/03 10:58:37;;;;;;;110.85;47.58;;;7.30;99.90;;;;;;6284600;22;20289;-86
2023/03/03 11:01:27;;;;;;;107.07;48.83;;;7.30;99.90;;;;;;6284616;22;20516;-85
2023/03/03 11:04:26;;;;;;;110.75;50.80;;;7.40;99.90;;;;;;6284140;22;20193;-86
2023/03/03 11:07:04;;;;;;;114.72;49.72;;;7.40;99.90;;;;;;6276590;22;20159;-85
2023/03/03 11:09:39;;;;;;;108.57;49.72;;;7.50;99.90;;;;;;6280477;22;20224;-85
2023/03/03 11:12:36;;;;;;;113.13;49.83;;;7.60;99.90;;;;;;6314036;22;20185;-87
2023/03/03 11:15:20;;;;;;;108.53;48.65;;;7.60;99.90;;;;;;6256691;22;20241;-85
2023/03/03 11:18:12;;;;;;;106.25;49.67;;;7.60;99.90;;;;;;6313417;22;20177;-86
2023/03/03 11:21:12;;;;;;;108.88;50.28;;;7.60;99.90;;;;;;6312231;22;20185;-83
2023/03/03 11:23:52;;;;;;;112.57;51.85;;;7.70;99.90;;;;;;6310454;22;20546;-86
2023/03/03 11:26:49;;;;;;;110.63;50.67;;;7.80;99.90;;;;;;6311499;22;20261;-86
2023/03/03 11:29:41;;;;;;;113.53;51.53;;;7.90;99.90;;;;;;6283544;22;20152;-86
2023/03/03 11:32:22;;;;;;;110.72;51.20;;;7.90;99.90;;;;;;6285694;22;20158;-86
2023/03/03 11:35:24;;;;;;;112.93;49.83;;;7.90;99.90;;;;;;6283285;22;20151;-85
2023/03/03 11:38:47;;;;;;;;;;;;;;;;;;;;;
2023/03/03 11:41:28;;;;;;;114.10;50.75;;;7.90;99.90;;;;;;6207000;22;20218;-86
2023/03/03 11:44:23;;;;;;;112.00;50.42;;;7.70;99.90;;;;;;6312302;22;20196;-87
2023/03/03 11:47:09;;;;;;;;;;;;;;;;;;;;;
2023/03/03 11:49:54;;;;;;;115.25;51.60;;;7.90;99.90;;;;;;6314505;22;20191;-86
2023/03/03 11:52:29;;;;;;;115.28;53.90;;;8.00;99.90;;;;;;6284206;22;20140;-85
2023/03/03 11:55:25;;;;;;;103.32;47.95;;;7.90;99.90;;;;;;6313125;22;20159;-85
2023/03/03 11:58:38;;;;;;;;;;;;;;;;;;;;;
2023/03/03 12:04:57;;;;;;;104.32;48.08;;;8.20;99.90;;;;;;6263442;22;20585;-86
2023/03/03 12:07:53;;;;;;;108.68;48.85;;;8.30;99.90;;;;;;6269971;22;20160;-85
2023/03/03 12:10:47;;;;;;;103.47;48.85;;;8.30;99.90;;;;;;6283819;22;20183;-86
2023/03/03 12:13:27;;;;;;;127.15;54.75;;;8.30;99.90;;;;;;6286681;22;20155;-85
2023/03/03 12:16:11;;;;;;;113.65;51.60;;;8.20;99.90;;;;;;6286043;22;20179;-86
2023/03/03 12:18:58;;;;;;;106.88;48.63;;;8.10;99.90;;;;;;6315094;22;20146;-86
2023/03/03 12:21:45;;;;;;;109.68;49.45;;;8.10;99.90;;;;;;6311574;22;20193;-86
2023/03/03 12:24:32;;;;;;;97.65;47.75;;;8.00;99.90;;;;;;6284768;22;20648;-86
2023/03/03 12:27:25;;;;;;;118.82;49.60;;;8.10;99.90;;;;;;6312588;22;20203;-86
2023/03/03 12:30:19;;;;;;;109.80;49.13;;;8.20;99.90;;;;;;6284807;22;20186;-85
2023/03/03 12:33:11;;;;;;;114.47;49.33;;;8.30;99.90;;;;;;6286747;22;20150;-86
2023/03/03 12:36:03;;;;;;;112.28;51.88;;;8.40;99.90;;;;;;6316943;22;20166;-86
2023/03/03 12:38:43;;;;;;;118.57;50.50;;;8.40;99.90;;;;;;6286803;22;20152;-85
2023/03/03 12:41:22;;;;;;;105.10;47.90;;;8.50;99.90;;;;;;6286275;22;20218;-86
2023/03/03 12:44:21;;;;;;;110.35;50.35;;;8.50;99.90;;;;;;6285558;22;20144;-86
2023/03/03 12:46:50;;;;;;;107.50;50.05;;;8.50;99.90;;;;;;6258764;22;20183;-84
2023/03/03 12:49:18;;;;;;;122.07;52.00;;;8.50;99.90;;;;;;6313745;22;20152;-85
2023/03/03 12:51:49;;;;;;;103.72;48.47;;;8.50;99.90;;;;;;6314808;22;20378;-85
2023/03/03 12:54:36;;;;;;;104.57;49.15;;;8.50;99.90;;;;;;6297563;22;20181;-85
2023/03/03 12:57:30;;;;;;;109.95;49.08;;;8.50;99.90;;;;;;6296501;22;20163;-85
2023/03/03 13:00:39;;;;;;;98.78;47.30;;;8.50;99.90;;;;;;6314208;22;20178;-85
2023/03/03 13:03:21;;;;;;;100.55;49.15;;;8.60;99.90;;;;;;6286415;22;20151;-86
2023/03/03 13:06:09;;;;;;;98.40;46.80;;;8.60;99.90;;;;;;6312588;22;20151;-86
2023/03/03 13:09:01;;;;;;;107.45;50.08;;;8.60;99.90;;;;;;6285050;22;20151;-85
2023/03/03 13:11:52;;;;;;;98.70;46.35;;;8.70;99.90;;;;;;6311500;22;20136;-86
2023/03/03 13:14:37;;;;;;;90.43;42.78;;;8.80;99.90;;;;;;6279163;22;20253;-85
2023/03/03 13:17:20;;;;;;;89.05;41.42;;;8.90;99.90;;;;;;6282604;22;20163;-84
2023/03/03 13:19:53;;;;;;;91.90;43.22;;;8.90;99.90;;;;;;6281891;22;20216;-85
2023/03/03 13:22:38;;;;;;;91.90;45.58;;;8.90;99.90;;;;;;6283034;22;20148;-85
2023/03/03 13:25:46;;;;;;;92.22;45.45;;;8.80;99.90;;;;;;6281156;22;20151;-84
2023/03/03 13:28:20;;;;;;;105.30;47.60;;;8.90;99.90;;;;;;6241757;22;20220;-84
2023/03/03 13:30:49;;;;;;;109.33;49.40;;;8.90;99.90;;;;;;6307500;22;20503;-85
2023/03/03 13:33:35;;;;;;;98.70;46.63;;;8.90;99.90;;;;;;6306067;22;20708;-84
2023/03/03 13:36:39;;;;;;;95.03;47.22;;;8.90;99.90;;;;;;6278977;22;20429;-85
2023/03/03 13:40:09;;;;;;;100.73;48.67;;;8.80;99.90;;;;;;6280449;22;20159;-85
2023/03/03 13:49:27;;;;;;;108.20;49.63;;;9.00;99.90;;;;;;6291925;22;20234;-85
2023/03/03 13:52:03;;;;;;;106.63;49.83;;;9.00;99.90;;;;;;6308658;22;20177;-84
2023/03/03 13:54:44;;;;;;;107.63;52.17;;;8.80;99.90;;;;;;6309939;22;20132;-84
2023/03/03 13:57:51;;;;;;;106.47;49.83;;;8.70;99.90;;;;;;6307356;22;20132;-84
2023/03/03 14:00:35;;;;;;;106.85;50.30;;;8.70;99.90;;;;;;6308372;22;20498;-85
2023/03/03 14:03:25;;;;;;;108.90;50.28;;;8.60;99.90;;;;;;6304040;22;20174;-85
2023/03/03 14:06:01;;;;;;;99.25;46.55;;;8.60;99.90;;;;;;6279330;22;20162;-85
2023/03/03 14:09:04;;;;;;;112.03;51.78;;;8.70;99.90;;;;;;6308073;22;20144;-85
2023/03/03 14:11:43;;;;;;;110.30;50.35;;;8.80;99.90;;;;;;6307861;22;20613;-84
2023/03/03 14:14:14;;;;;;;99.77;49.17;;;8.90;99.90;;;;;;6281211;22;20163;-84
2023/03/03 14:16:51;;;;;;;107.07;48.00;;;8.90;99.90;;;;;;6308939;22;20426;-85
2023/03/03 14:19:29;;;;;;;93.43;46.87;;;8.90;99.90;;;;;;6306002;22;20147;-87
2023/03/03 14:22:24;;;;;;;90.77;43.63;;;9.00;99.90;;;;;;6279656;22;20462;-85
2023/03/03 14:25:07;;;;;;;91.10;45.00;;;9.20;99.90;;;;;;6287748;22;20393;-85
2023/03/03 14:27:43;;;;;;;90.03;44.70;;;9.40;99.90;;;;;;6306699;22;20380;-84
2023/03/03 14:30:23;;;;;;;99.93;49.07;;;9.40;99.90;;;;;;6278019;22;20409;-84
2023/03/03 14:33:09;;;;;;;91.87;45.83;;;9.50;99.90;;;;;;6307616;22;20718;-86
2023/03/03 14:35:49;;;;;;;94.30;46.60;;;9.60;99.90;;;;;;6307080;22;20552;-84
2023/03/03 14:38:25;;;;;;;90.63;45.63;;;9.60;99.90;;;;;;6306521;22;20370;-84
2023/03/03 14:41:19;;;;;;;100.20;48.00;;;9.60;99.90;;;;;;6307708;22;20463;-86
2023/03/03 14:43:57;;;;;;;98.37;48.80;;;9.60;99.90;;;;;;6281889;22;20849;-86
2023/03/03 14:46:35;;;;;;;82.77;43.83;;;9.60;99.90;;;;;;6312534;22;20433;-85
2023/03/03 14:49:29;;;;;;;84.20;44.67;;;9.60;99.90;;;;;;6311800;22;20382;-86
2023/03/03 14:52:19;;;;;;;97.07;47.40;;;9.50;99.90;;;;;;6310373;22;20703;-84
2023/03/03 14:55:22;;;;;;;;;;;;;;;;;;;;;
2023/03/03 14:58:22;;;;;;;89.27;45.40;;;9.60;99.90;;;;;;6300142;22;20934;-86
2023/03/03 15:01:15;;;;;;;;;;;;;;;;;;;;;
2023/03/03 15:07:02;;;;;;;;;;;;;;;;;;;;;
2023/03/03 15:09:47;;;;;;;;;;;;;;;;;;;;;
2023/03/03 15:12:39;;;;;;;85.73;46.83;;;10.20;99.90;;;;;;6312604;22;20382;-86
2023/03/03 15:15:13;;;;;;;84.10;44.03;;;10.50;99.90;;;;;;6312554;22;20385;-86
2023/03/03 15:18:04;;;;;;;;;;;;;;;;;;;;;
2023/03/03 15:21:00;;;;;;;;;;;;;;;;;;;;;
2023/03/03 15:24:02;;;;;;;74.23;43.53;;;11.00;99.90;;;;;;6310401;22;20861;-85
2023/03/03 15:26:56;;;;;;;93.63;44.50;;;11.00;99.90;;;;;;6310319;22;20407;-86
2023/03/03 15:30:01;;;;;;;78.23;44.77;;;11.10;99.90;;;;;;6311013;22;20394;-85
2023/03/03 15:32:44;;;;;;;80.20;45.03;;;11.10;99.90;;;;;;6282024;22;20455;-86
2023/03/03 15:35:26;;;;;;;70.70;41.50;;;11.20;99.90;;;;;;6311624;22;20382;-86
2023/03/03 15:38:32;;;;;;;70.63;41.27;;;11.20;99.90;;;;;;6285264;22;20381;-86
2023/03/03 15:41:22;;;;;;;72.87;43.07;;;11.10;99.90;;;;;;6311562;22;20433;-86
2023/03/03 15:44:06;;;;;;;79.93;41.77;;;10.90;99.90;;;;;;6283029;22;20952;-86
2023/03/03 15:46:51;;;;;;;67.90;40.23;;;10.70;99.90;;;;;;6311990;22;20402;-85
2023/03/03 15:49:54;;;;;;;68.77;41.47;;;10.50;99.90;;;;;;6310446;22;20732;-85
2023/03/03 15:52:53;;;;;;;71.90;39.63;;;10.30;99.90;;;;;;6311680;22;20380;-85
2023/03/03 15:55:57;;;;;;;68.50;38.70;;;10.20;99.90;;;;;;6283440;22;20392;-85
2023/03/03 15:58:46;;;;;;;67.10;39.40;;;10.00;99.90;;;;;;6283394;22;20377;-85
2023/03/03 16:01:41;;;;;;;74.53;38.60;;;9.80;99.90;;;;;;6306946;22;20397;-84
2023/03/03 16:04:15;;;;;;;55.73;33.23;;;9.70;99.90;;;;;;6288399;22;20483;-87
2023/03/03 16:07:03;;;;;;;60.10;34.20;;;9.60;99.90;;;;;;6309230;22;20778;-86
2023/03/03 16:10:02;;;;;;;57.43;32.23;;;9.60;99.90;;;;;;6310771;22;20386;-87
2023/03/03 16:12:50;;;;;;;57.73;33.37;;;9.40;99.90;;;;;;6308465;22;20574;-84
2023/03/03 16:15:55;;;;;;;60.47;34.10;;;9.40;99.90;;;;;;6310462;22;20437;-86
2023/03/03 16:18:44;;;;;;;55.30;30.43;;;9.20;99.90;;;;;;6281952;22;20376;-86
2023/03/03 16:21:32;;;;;;;50.63;28.48;;;9.10;99.90;;;;;;6284030;22;20429;-85
2023/03/03 16:28:03;;;;;;;;;;;;;;;;;;;;;
2023/03/03 16:31:19;;;;;;;;;;;;;;;;;;;;;
2023/03/03 16:34:03;;;;;;;43.70;24.48;;;8.70;99.90;;;;;;6302426;22;20250;-84
2023/03/03 16:37:10;;;;;;;45.33;21.63;;;8.60;99.90;;;;;;6280337;22;20660;-84
2023/03/03 16:39:55;;;;;;;47.40;23.65;;;8.50;99.90;;;;;;6279989;22;20171;-84
2023/03/03 16:42:31;;;;;;;39.97;21.73;;;8.40;99.90;;;;;;6279609;22;20166;-83
2023/03/03 16:45:06;;;;;;;49.15;24.00;;;8.30;99.90;;;;;;6280890;22;20151;-83
2023/03/03 16:47:56;;;;;;;43.63;24.45;;;8.20;99.90;;;;;;6280310;22;20153;-84
2023/03/03 16:50:42;;;;;;;52.20;25.63;;;8.10;99.90;;;;;;6278922;22;20179;-85
2023/03/03 16:53:30;;;;;;;47.53;25.98;;;8.00;99.90;;;;;;6308117;22;20652;-83
2023/03/03 16:56:14;;;;;;;46.55;26.67;;;7.90;99.90;;;;;;6308072;22;20575;-84
2023/03/03 16:59:16;;;;;;;38.40;23.60;;;7.80;99.90;;;;;;6308047;22;20164;-86
2023/03/03 17:01:54;;;;;;;49.22;25.55;;;7.70;99.90;;;;;;6308676;22;20196;-84
2023/03/03 17:04:32;;;;;;;43.08;23.60;;;7.50;99.90;;;;;;6308088;22;20145;-84
2023/03/03 17:07:35;;;;;;;43.83;24.40;;;7.40;99.90;;;;;;6280117;22;20178;-84
2023/03/03 17:10:04;;;;;;;42.00;22.90;;;7.30;99.90;;;;;;6180569;22;20183;-84
2023/03/03 17:12:32;;;;;;;45.55;23.88;;;7.20;99.90;;;;;;6280156;22;20213;-84
2023/03/03 17:15:13;;;;;;;44.70;22.45;;;7.00;99.90;;;;;;6278384;22;20480;-84
2023/03/03 17:17:50;;;;;;;43.83;22.50;;;6.90;99.90;;;;;;6306851;22;20164;-85
2023/03/03 17:20:47;;;;;;;43.65;21.23;;;6.80;99.90;;;;;;6308105;22;20167;-83
2023/03/03 17:24:07;;;;;;;;;;;;;;;;;;;;;
2023/03/03 17:27:05;;;;;;;;;;;;;;;;;;;;;
2023/03/03 19:31:20;;;;;;;;;;;;;;;;;;;;;
